Time;durP1;ratioP1;P1;durP2;ratioP2;P2;SDS_P1;SDS_P2;PMS_P1;PMS_P2;Temp;Humidity;BMP_temperature;BMP_pressure;BME280_temperature;BME280_humidity;BME280_pressure;Samples;Min_cycle;Max_cycle;Signal;HPM_P1;HPM_P2
2022/09/11 00:00:56;;;;;;;9.17;5.63;;;;;;;24.22;54.73;96673.81;4932187;29;20754;-79
2022/09/11 00:03:23;;;;;;;8.60;6.77;;;;;;;24.09;55.78;96676.94;4931151;29;20699;-80
2022/09/11 00:05:54;;;;;;;8.27;6.50;;;;;;;24.02;56.51;96675.91;4932447;29;20191;-80
2022/09/11 00:08:21;;;;;;;14.07;7.30;;;;;;;23.98;56.32;96679.88;4931628;29;20223;-80
2022/09/11 00:10:48;;;;;;;10.20;6.93;;;;;;;23.84;57.04;96669.91;4931850;29;20191;-78
2022/09/11 00:13:20;;;;;;;8.90;7.00;;;;;;;23.61;57.11;96642.38;4931379;29;20196;-78
2022/09/11 00:15:49;;;;;;;13.40;6.60;;;;;;;23.80;56.95;96675.66;4931421;29;20200;-78
2022/09/11 00:18:22;;;;;;;8.83;6.90;;;;;;;23.82;56.50;96676.34;4931228;29;20205;-79
2022/09/11 00:20:52;;;;;;;9.83;7.30;;;;;;;23.77;56.07;96678.63;4930065;29;20290;-79
2022/09/11 00:23:21;;;;;;;11.77;6.87;;;;;;;23.75;55.48;96670.84;4930287;29;20278;-79
2022/09/11 00:25:49;;;;;;;10.73;6.57;;;;;;;23.72;55.07;96679.09;4929887;29;20274;-79
2022/09/11 00:28:18;;;;;;;9.10;6.57;;;;;;;23.62;55.02;96681.03;4930512;29;20305;-79
2022/09/11 00:30:47;;;;;;;11.20;6.73;;;;;;;23.59;54.58;96676.09;4931374;29;20211;-79
2022/09/11 00:33:14;;;;;;;8.67;6.83;;;;;;;23.51;54.94;96680.50;4929767;29;20225;-80
2022/09/11 00:35:41;;;;;;;12.87;7.73;;;;;;;23.54;55.25;96690.75;4930797;29;20198;-80
2022/09/11 00:38:10;;;;;;;11.57;6.67;;;;;;;23.59;55.49;96681.38;4929706;29;20220;-80
2022/09/11 00:40:47;;;;;;;9.97;6.93;;;;;;;23.57;54.93;96680.72;4932299;29;20265;-79
2022/09/11 00:43:15;;;;;;;8.43;6.33;;;;;;;23.49;53.32;96675.38;4930964;29;20320;-79
2022/09/11 00:45:46;;;;;;;6.83;5.90;;;;;;;23.52;52.83;96682.16;4914629;29;20196;-80
2022/09/11 00:48:19;;;;;;;9.67;6.17;;;;;;;23.59;53.24;96681.38;4931413;29;20191;-79
2022/09/11 00:50:48;;;;;;;8.27;6.33;;;;;;;23.57;52.96;96678.06;4930710;29;20282;-79
2022/09/11 00:53:18;;;;;;;6.77;5.80;;;;;;;23.64;52.98;96684.34;4930189;29;20550;-79
2022/09/11 00:55:49;;;;;;;5.97;5.03;;;;;;;23.57;52.12;96678.06;4930225;29;20199;-79
2022/09/11 00:58:22;;;;;;;8.23;4.80;;;;;;;23.61;51.50;96682.03;4931394;29;20199;-79
2022/09/11 01:00:53;;;;;;;8.93;4.90;;;;;;;23.59;49.47;96681.38;4930858;29;20677;-78
2022/09/11 01:03:20;;;;;;;6.70;4.40;;;;;;;23.59;49.53;96678.72;4930880;29;20237;-79
2022/09/11 01:05:48;;;;;;;7.13;4.03;;;;;;;23.52;48.26;96685.63;4930146;29;20225;-80
2022/09/11 01:08:15;;;;;;;4.40;3.17;;;;;;;23.49;48.33;96685.13;4929213;29;20191;-79
2022/09/11 01:10:55;;;;;;;4.00;3.50;;;;;;;23.58;48.12;96678.88;4931325;29;20205;-80
2022/09/11 01:13:34;;;;;;;4.97;3.70;;;;;;;23.64;48.69;96673.78;4930136;29;20194;-80
2022/09/11 01:16:07;;;;;;;4.57;4.10;;;;;;;23.73;49.35;96675.47;4930966;29;20193;-80
2022/09/11 01:18:48;;;;;;;5.80;5.03;;;;;;;23.54;49.92;96661.66;4929462;29;20192;-80
2022/09/11 01:21:45;;;;;;;5.63;4.43;;;;;;;23.58;49.83;96663.00;4930541;29;20190;-80
2022/09/11 01:24:34;;;;;;;6.20;4.60;;;;;;;23.55;50.78;96661.53;4957536;28;20271;-80
2022/09/11 01:27:25;;;;;;;5.43;4.50;;;;;;;23.64;50.87;96670.34;4968813;28;20279;-81
2022/09/11 01:30:01;;;;;;;6.77;4.40;;;;;;;23.61;50.51;96668.81;4950696;28;20195;-79
2022/09/11 01:33:07;;;;;;;5.20;4.33;;;;;;;23.45;51.09;96663.47;4933044;29;20196;-81
2022/09/11 01:36:01;;;;;;;5.70;4.30;;;;;;;23.26;51.62;96648.66;4932334;29;20192;-81
2022/09/11 01:38:36;;;;;;;5.60;4.43;;;;;;;23.20;52.17;96651.09;4949792;29;20296;-80
2022/09/11 01:41:22;;;;;;;4.87;4.33;;;;;;;23.26;51.34;96658.38;4950366;29;20189;-80
2022/09/11 01:44:02;;;;;;;7.87;4.20;;;;;;;23.07;51.73;96648.03;4949201;29;20262;-80
2022/09/11 01:46:35;;;;;;;4.30;3.50;;;;;;;23.07;51.32;96648.88;4932806;29;20192;-80
2022/09/11 01:49:15;;;;;;;4.67;3.60;;;;;;;22.96;51.65;96641.19;4932332;29;20586;-79
2022/09/11 01:51:46;;;;;;;4.43;3.10;;;;;;;23.01;51.42;96653.94;4931697;29;20188;-80
2022/09/11 01:54:21;;;;;;;5.83;4.00;;;;;;;22.96;51.59;96641.19;4932712;29;20299;-80
2022/09/11 01:56:55;;;;;;;5.80;3.63;;;;;;;23.04;52.30;96648.34;4948843;29;20677;-79
2022/09/11 01:59:51;;;;;;;5.33;3.77;;;;;;;23.08;52.68;96655.00;4932190;29;20185;-80
2022/09/11 02:02:24;;;;;;;6.20;4.20;;;;;;;23.16;53.31;96662.97;4929684;29;20208;-80
2022/09/11 02:05:01;;;;;;;4.90;4.23;;;;;;;23.07;53.78;96655.97;4931330;29;20668;-79
2022/09/11 02:08:00;;;;;;;5.23;4.33;;;;;;;22.83;55.42;96653.16;4949386;29;20575;-79
2022/09/11 02:10:35;;;;;;;6.80;4.90;;;;;;;22.52;57.14;96642.19;4931441;29;20219;-79
2022/09/11 02:13:31;;;;;;;6.20;4.80;;;;;;;22.58;58.07;96652.16;4931685;29;20197;-78
2022/09/11 02:16:18;;;;;;;7.70;5.50;;;;;;;22.57;58.00;96661.00;4932282;29;20282;-79
2022/09/11 02:19:00;;;;;;;6.20;5.00;;;;;;;22.54;57.97;96656.06;4900446;29;20211;-80
2022/09/11 02:21:27;;;;;;;7.17;5.40;;;;;;;22.56;58.02;96654.09;4931792;29;20222;-80
2022/09/11 02:23:54;;;;;;;6.07;5.37;;;;;;;22.58;57.10;96658.28;4928547;29;20602;-80
2022/09/11 02:26:29;;;;;;;7.10;5.70;;;;;;;22.43;58.37;96646.56;4928222;29;20673;-79
2022/09/11 02:28:58;;;;;;;6.07;5.33;;;;;;;22.40;57.40;96632.84;4930458;29;20667;-79
2022/09/11 02:31:26;;;;;;;6.33;5.50;;;;;;;22.49;57.86;96659.16;4944406;28;20204;-80
2022/09/11 02:33:56;;;;;;;5.97;5.30;;;;;;;22.46;57.80;96643.59;4928869;29;20222;-81
2022/09/11 02:36:45;;;;;;;6.50;5.90;;;;;;;22.63;57.56;96661.28;4920307;29;20578;-80
2022/09/11 02:39:41;;;;;;;6.70;5.80;;;;;;;22.69;57.34;96659.00;4919415;29;20205;-80
2022/09/11 02:42:42;;;;;;;6.63;5.90;;;;;;;22.76;57.25;96660.03;4932579;29;20680;-80
2022/09/11 02:45:31;;;;;;;6.30;5.70;;;;;;;22.92;57.29;96665.44;4917650;29;20213;-81
2022/09/11 02:48:38;;;;;;;6.47;5.83;;;;;;;22.86;57.35;96661.59;4912612;29;20236;-81
2022/09/11 02:51:25;;;;;;;6.33;5.77;;;;;;;22.67;57.37;96656.50;4924453;29;20574;-82
2022/09/11 02:54:03;;;;;;;7.10;6.40;;;;;;;22.75;57.37;96666.31;4931990;29;20207;-81
2022/09/11 02:57:05;;;;;;;10.23;6.17;;;;;;;22.72;57.99;96662.16;4932178;29;20244;-80
2022/09/11 02:59:43;;;;;;;7.07;6.17;;;;;;;22.86;57.50;96671.31;4909876;29;20684;-80
2022/09/11 03:02:14;;;;;;;8.50;6.33;;;;;;;22.69;57.47;96666.94;4949709;29;20203;-80
2022/09/11 03:04:41;;;;;;;7.97;6.30;;;;;;;22.61;58.17;96662.41;4931968;29;20256;-79
2022/09/11 03:07:08;;;;;;;9.10;6.70;;;;;;;22.66;57.98;96662.78;4933270;29;20756;-80
2022/09/11 03:09:36;;;;;;;7.20;5.87;;;;;;;22.83;57.88;96666.38;4931292;29;20200;-80
2022/09/11 03:12:10;;;;;;;10.37;6.23;;;;;;;22.79;57.15;96665.84;4916502;29;20211;-79
2022/09/11 03:14:37;;;;;;;8.67;6.27;;;;;;;22.84;57.09;96673.28;4930999;29;20581;-81
2022/09/11 03:17:05;;;;;;;9.60;7.20;;;;;;;22.39;57.51;96632.03;4932357;29;20187;-81
2022/09/11 03:19:34;;;;;;;7.23;6.50;;;;;;;22.72;57.03;96669.25;4931139;29;20631;-77
2022/09/11 03:22:02;;;;;;;8.97;6.57;;;;;;;22.66;57.39;96681.25;4931526;29;20668;-79
2022/09/11 03:24:29;;;;;;;8.10;6.53;;;;;;;22.67;56.99;96677.63;4931226;29;20239;-79
2022/09/11 03:26:55;;;;;;;7.77;6.90;;;;;;;22.55;57.70;96674.38;4932610;29;20247;-79
2022/09/11 03:29:23;;;;;;;8.57;6.80;;;;;;;22.60;57.79;96680.06;4931633;29;20198;-79
2022/09/11 03:31:53;;;;;;;9.60;6.83;;;;;;;22.65;57.34;96674.31;4930492;29;20205;-79
2022/09/11 03:34:21;;;;;;;11.20;7.13;;;;;;;22.75;57.21;96684.81;4932926;29;20566;-79
2022/09/11 03:36:49;;;;;;;8.67;7.10;;;;;;;22.63;57.94;96698.22;4931995;29;20280;-78
2022/09/11 03:39:17;;;;;;;13.27;7.73;;;;;;;22.42;58.47;96699.50;4932933;29;20197;-80
2022/09/11 03:41:44;;;;;;;8.63;7.20;;;;;;;22.31;59.04;96702.34;4931577;29;20616;-80
2022/09/11 03:44:12;;;;;;;8.80;7.90;;;;;;;22.23;59.09;96687.28;4899414;29;20230;-80
2022/09/11 03:46:39;;;;;;;10.47;7.93;;;;;;;22.31;58.69;96692.66;4932801;29;20202;-79
2022/09/11 03:49:08;;;;;;;10.60;7.97;;;;;;;22.43;58.58;96702.00;4930651;29;20221;-80
2022/09/11 03:51:35;;;;;;;11.80;9.10;;;;;;;22.30;59.33;96701.53;4946471;28;20201;-80
2022/09/11 03:54:03;;;;;;;11.57;8.70;;;;;;;22.24;59.44;96698.66;4932191;29;20188;-81
2022/09/11 03:56:32;;;;;;;9.53;8.53;;;;;;;22.20;59.21;96684.94;4931761;29;20215;-81
2022/09/11 03:58:59;;;;;;;9.97;8.63;;;;;;;22.25;59.60;96692.41;4932404;29;20246;-78
2022/09/11 04:01:27;;;;;;;10.53;9.30;;;;;;;22.19;59.91;96691.22;4930532;29;20195;-78
2022/09/11 04:03:55;;;;;;;11.67;9.93;;;;;;;22.25;59.58;96687.97;4931060;29;20229;-78
2022/09/11 04:06:28;;;;;;;12.30;9.50;;;;;;;22.28;59.19;96698.22;4946272;29;20275;-79
2022/09/11 04:08:55;;;;;;;10.60;9.07;;;;;;;22.21;59.38;96693.69;4931116;29;20192;-80
2022/09/11 04:11:24;;;;;;;14.23;9.57;;;;;;;22.22;59.67;96709.38;4930135;29;20196;-79
2022/09/11 04:13:53;;;;;;;10.50;8.00;;;;;;;22.29;59.33;96705.16;4931154;29;20188;-80
2022/09/11 04:16:25;;;;;;;11.23;9.17;;;;;;;22.38;59.06;96706.88;4914633;29;20191;-80
2022/09/11 04:18:54;;;;;;;10.13;8.93;;;;;;;22.54;59.36;96703.56;4930049;29;20279;-79
2022/09/11 04:21:22;;;;;;;11.43;8.90;;;;;;;22.62;59.50;96698.38;4915583;29;20222;-80
2022/09/11 04:23:55;;;;;;;13.90;9.60;;;;;;;22.69;60.18;96707.34;4929368;29;20300;-81
2022/09/11 04:26:26;;;;;;;11.47;9.30;;;;;;;22.72;59.69;96711.50;4915502;29;20209;-79
2022/09/11 04:29:00;;;;;;;14.13;9.47;;;;;;;22.78;59.88;96714.34;4929589;29;20209;-80
2022/09/11 04:31:27;;;;;;;11.43;9.10;;;;;;;22.75;59.28;96705.91;4946651;29;20199;-80
2022/09/11 04:33:56;;;;;;;13.10;9.67;;;;;;;22.79;59.25;96718.69;4946368;29;20672;-80
2022/09/11 04:36:28;;;;;;;13.33;9.17;;;;;;;22.81;60.03;96721.16;4914918;29;20815;-80
2022/09/11 04:38:57;;;;;;;11.63;8.70;;;;;;;23.10;58.73;96725.16;4915526;29;20628;-80
2022/09/11 04:41:25;;;;;;;14.00;8.93;;;;;;;23.13;58.37;96713.44;4945701;29;20633;-80
2022/09/11 04:43:55;;;;;;;10.87;8.30;;;;;;;23.14;58.37;96713.28;4932699;29;20248;-81
2022/09/11 04:46:27;;;;;;;9.57;7.90;;;;;;;23.27;57.08;96707.59;4929199;29;20584;-81
2022/09/11 04:48:58;;;;;;;9.70;7.80;;;;;;;23.35;57.62;96718.25;4946252;29;20649;-80
2022/09/11 04:51:31;;;;;;;10.97;8.17;;;;;;;23.41;57.33;96701.78;4930080;29;20189;-78
2022/09/11 04:54:01;;;;;;;10.07;7.77;;;;;;;23.54;56.98;96718.03;4929117;29;20615;-79
2022/09/11 04:56:34;;;;;;;9.53;7.87;;;;;;;23.42;57.25;96720.13;4931662;29;20644;-80
2022/09/11 04:59:21;;;;;;;12.37;9.07;;;;;;;23.76;56.49;96716.66;4945196;29;20237;-79
2022/09/11 05:02:08;;;;;;;8.60;7.40;;;;;;;23.93;56.58;96718.34;4929818;29;20211;-79
2022/09/11 05:04:40;;;;;;;8.57;6.83;;;;;;;24.06;55.83;96709.03;4900649;29;20253;-81
2022/09/11 05:07:08;;;;;;;9.30;8.00;;;;;;;24.05;56.22;96704.69;4910583;29;20191;-80
2022/09/11 05:09:39;;;;;;;9.37;7.20;;;;;;;24.18;55.77;96701.59;4911674;29;20183;-81
2022/09/11 05:12:06;;;;;;;13.63;8.00;;;;;;;24.26;55.45;96712.19;4907538;29;20348;-79
2022/09/11 05:14:35;;;;;;;10.77;7.40;;;;;;;23.91;56.49;96715.03;4910850;29;20188;-80
2022/09/11 05:17:02;;;;;;;11.30;8.03;;;;;;;24.04;56.35;96713.66;4910192;29;20248;-79
2022/09/11 05:19:32;;;;;;;11.70;7.30;;;;;;;24.10;56.32;96706.88;4910342;29;20228;-79
2022/09/11 05:21:59;;;;;;;8.80;6.83;;;;;;;24.03;56.86;96701.38;4910636;29;20195;-80
2022/09/11 05:24:28;;;;;;;9.10;7.20;;;;;;;24.10;56.41;96686.53;4909598;29;20295;-79
2022/09/11 05:26:57;;;;;;;11.33;7.70;;;;;;;24.48;54.92;96714.25;4910828;29;20208;-79
2022/09/11 05:29:29;;;;;;;9.07;7.10;;;;;;;24.37;56.42;96711.91;4909039;29;20688;-80
2022/09/11 05:32:07;;;;;;;10.57;7.47;;;;;;;24.59;54.58;96715.72;4910496;29;20189;-79
2022/09/11 05:34:34;;;;;;;12.07;7.40;;;;;;;24.71;55.89;96711.78;4915295;29;20213;-74
2022/09/11 05:37:01;;;;;;;8.50;6.77;;;;;;;24.96;54.28;96718.72;4940690;28;20215;-72
2022/09/11 05:39:33;;;;;;;10.77;7.90;;;;;;;24.97;53.02;96707.16;4914764;29;20204;-79
2022/09/11 05:42:03;;;;;;;13.17;8.10;;;;;;;25.24;53.23;96719.22;4929269;29;20229;-78
2022/09/11 05:44:35;;;;;;;10.17;7.67;;;;;;;25.34;52.43;96709.25;4945490;29;20292;-81
2022/09/11 05:47:05;;;;;;;9.90;7.73;;;;;;;25.53;52.02;96714.22;4928397;29;20197;-75
2022/09/11 05:49:32;;;;;;;8.80;7.90;;;;;;;25.54;51.78;96711.38;4931105;29;20878;-78
2022/09/11 05:52:00;;;;;;;7.53;6.00;;;;;;;25.39;51.88;96713.03;4913316;29;20236;-79
2022/09/11 05:54:29;;;;;;;9.40;6.17;;;;;;;25.35;51.54;96708.28;4908107;29;20200;-80
2022/09/11 05:57:01;;;;;;;9.10;7.27;;;;;;;25.46;51.90;96718.53;4920475;29;20559;-79
2022/09/11 05:59:35;;;;;;;9.50;7.23;;;;;;;25.26;52.27;96712.75;4910331;29;20193;-78
2022/09/11 06:02:03;;;;;;;9.80;5.93;;;;;;;25.30;50.43;96706.13;4912251;29;20566;-75
2022/09/11 06:04:40;;;;;;;5.40;4.93;;;;;;;25.22;49.57;96710.59;4909965;29;20296;-77
2022/09/11 06:07:08;;;;;;;6.37;5.73;;;;;;;24.94;50.84;96707.47;4910367;29;20193;-81
2022/09/11 06:09:36;;;;;;;7.43;6.17;;;;;;;24.88;50.40;96721.38;4910533;29;20194;-79
2022/09/11 06:12:43;;;;;;;6.17;5.07;;;;;;;24.87;51.01;96709.16;4900005;29;20306;-79
2022/09/11 06:15:24;;;;;;;6.63;5.40;;;;;;;24.79;50.76;96714.47;4926218;29;20290;-78
2022/09/11 06:18:13;;;;;;;5.87;5.27;;;;;;;24.58;50.89;96711.44;4900129;29;20567;-78
2022/09/11 06:20:41;;;;;;;6.63;5.87;;;;;;;24.77;50.73;96714.59;4928414;29;20701;-79
2022/09/11 06:23:57;;;;;;;5.73;4.57;;;;;;;24.74;50.71;96714.94;4934646;28;20246;-78
2022/09/11 06:27:17;;;;;;;6.10;5.50;;;;;;;24.72;50.62;96724.84;4952020;28;20202;-77
2022/09/11 06:30:38;;;;;;;6.47;5.10;;;;;;;24.62;50.31;96710.09;4917638;29;20299;-79
2022/09/11 06:34:00;;;;;;;5.87;5.27;;;;;;;24.49;51.10;96709.75;4948413;29;20185;-78
2022/09/11 06:37:20;;;;;;;6.07;5.27;;;;;;;24.61;50.60;96721.69;4949124;29;20210;-78
2022/09/11 06:40:41;;;;;;;8.90;5.37;;;;;;;24.51;51.54;96713.91;4936301;29;20590;-77
2022/09/11 06:44:02;;;;;;;6.37;5.73;;;;;;;24.49;51.25;96715.03;4951207;29;20699;-78
2022/09/11 06:47:23;;;;;;;7.90;5.43;;;;;;;24.56;50.91;96732.78;4933740;29;20282;-79
2022/09/11 06:50:44;;;;;;;7.10;5.70;;;;;;;24.74;50.04;96730.84;4962005;29;20201;-78
2022/09/11 06:54:05;;;;;;;6.50;4.93;;;;;;;24.65;50.46;96733.59;4957326;29;20192;-78
2022/09/11 06:57:26;;;;;;;7.00;5.03;;;;;;;24.61;50.85;96732.25;4971267;28;20243;-78
2022/09/11 07:00:49;;;;;;;5.50;5.00;;;;;;;24.68;50.22;96730.63;4952158;29;20186;-79
2022/09/11 07:04:11;;;;;;;5.73;5.13;;;;;;;24.87;49.25;96733.00;4933833;29;20194;-78
2022/09/11 07:07:32;;;;;;;5.17;4.67;;;;;;;24.83;48.86;96724.53;4958278;28;20231;-77
2022/09/11 07:10:55;;;;;;;7.13;4.47;;;;;;;25.13;48.69;96727.50;4956280;29;20194;-77
2022/09/11 07:14:20;;;;;;;5.70;4.73;;;;;;;25.06;48.32;96730.00;4906797;29;20220;-77
2022/09/11 07:17:54;;;;;;;7.47;4.70;;;;;;;24.87;48.38;96754.19;4940574;29;20326;-78
2022/09/11 07:21:17;;;;;;;5.43;4.30;;;;;;;24.47;49.24;96732.91;4937262;29;20226;-77
2022/09/11 07:24:41;;;;;;;9.17;4.93;;;;;;;24.80;48.14;96747.88;4933792;29;20296;-79
2022/09/11 07:28:02;;;;;;;6.97;4.43;;;;;;;24.86;48.38;96739.28;4930192;29;20196;-75
2022/09/11 07:31:23;;;;;;;5.67;5.17;;;;;;;25.10;47.58;96728.66;4932020;29;20697;-78
2022/09/11 07:34:46;;;;;;;4.70;4.30;;;;;;;25.22;47.88;96742.41;4932876;29;20217;-77
2022/09/11 07:37:28;;;;;;;5.87;3.60;;;;;;;24.99;46.75;96742.25;4916072;29;20255;-78
2022/09/11 07:39:55;;;;;;;4.50;4.10;;;;;;;25.22;46.59;96737.94;4933189;29;20202;-77
2022/09/11 07:42:27;;;;;;;6.90;4.57;;;;;;;25.18;46.62;96714.59;4931866;29;20261;-78
2022/09/11 07:44:56;;;;;;;5.37;4.43;;;;;;;25.22;46.27;96726.50;4933426;29;20222;-78
2022/09/11 07:47:25;;;;;;;4.40;4.00;;;;;;;25.38;46.55;96742.38;4931188;29;20195;-77
2022/09/11 07:49:56;;;;;;;4.10;3.70;;;;;;;25.37;45.87;96730.94;4915991;29;20201;-77
2022/09/11 07:52:24;;;;;;;4.93;4.10;;;;;;;25.61;45.12;96738.06;4929942;29;20519;-77
2022/09/11 07:54:55;;;;;;;5.03;3.67;;;;;;;25.73;44.41;96742.00;4900600;29;20239;-78
2022/09/11 07:57:28;;;;;;;3.90;3.60;;;;;;;25.70;44.68;96744.97;4914466;29;20672;-79
2022/09/11 07:59:55;;;;;;;7.97;3.70;;;;;;;25.64;44.97;96754.44;4931226;29;20251;-78
2022/09/11 08:02:22;;;;;;;4.27;3.87;;;;;;;25.69;45.04;96743.34;4931401;29;20225;-77
2022/09/11 08:04:50;;;;;;;4.93;3.97;;;;;;;25.83;44.41;96743.47;4914816;29;20767;-79
2022/09/11 08:07:18;;;;;;;4.27;3.83;;;;;;;25.97;44.53;96735.75;4931671;29;20228;-80
2022/09/11 08:09:46;;;;;;;4.33;3.93;;;;;;;26.17;44.52;96745.00;4931634;29;20196;-78
2022/09/11 08:12:33;;;;;;;4.90;4.50;;;;;;;25.85;44.44;96719.41;4946904;29;20781;-78
2022/09/11 08:15:01;;;;;;;6.73;4.50;;;;;;;25.90;44.58;96738.28;4932429;29;20279;-80
2022/09/11 08:17:50;;;;;;;6.20;4.17;;;;;;;25.61;44.51;96733.59;4929036;29;20206;-75
2022/09/11 08:20:20;;;;;;;5.23;4.17;;;;;;;25.70;44.41;96727.25;4913213;29;20272;-78
2022/09/11 08:22:47;;;;;;;7.57;4.50;;;;;;;25.64;44.26;96706.72;4932718;28;20701;-79
2022/09/11 08:25:55;;;;;;;5.07;3.93;;;;;;;25.87;43.89;96705.94;4942978;28;20231;-78
2022/09/11 08:29:18;;;;;;;4.80;4.30;;;;;;;25.92;43.25;96725.69;4952867;28;20196;-79
2022/09/11 08:32:41;;;;;;;4.77;4.30;;;;;;;26.18;42.99;96725.41;4946268;29;20204;-79
2022/09/11 08:36:04;;;;;;;5.13;4.63;;;;;;;26.35;42.42;96735.78;4936164;29;20251;-79
2022/09/11 08:39:25;;;;;;;5.63;4.10;;;;;;;26.23;42.96;96718.59;4914043;29;20205;-79
2022/09/11 08:42:48;;;;;;;4.60;4.13;;;;;;;26.45;42.64;96711.63;4900727;29;20194;-79
2022/09/11 08:46:10;;;;;;;4.70;4.30;;;;;;;26.58;42.54;96712.69;4913981;29;20225;-79
2022/09/11 08:48:55;;;;;;;5.40;4.13;;;;;;;26.29;43.27;96711.75;4929792;29;20233;-77
2022/09/11 08:52:16;;;;;;;5.67;4.03;;;;;;;26.27;43.17;96708.44;4913605;29;20213;-78
2022/09/11 08:55:38;;;;;;;3.97;3.63;;;;;;;26.65;42.02;96702.19;4930689;29;20201;-79
2022/09/11 08:59:01;;;;;;;6.47;4.30;;;;;;;26.75;41.45;96700.16;4913379;29;20198;-79
2022/09/11 09:02:08;;;;;;;3.73;3.43;;;;;;;26.20;41.90;96697.69;4943367;28;20212;-80
2022/09/11 09:05:14;;;;;;;3.90;3.60;;;;;;;26.17;41.82;96694.56;4969979;28;20232;-78
2022/09/11 09:08:05;;;;;;;4.87;3.83;;;;;;;26.23;41.80;96684.06;4932126;29;20283;-78
2022/09/11 09:11:12;;;;;;;6.13;3.43;;;;;;;26.12;42.29;96673.00;4931442;29;20189;-77
2022/09/11 09:14:40;;;;;;;3.33;3.03;;;;;;;26.39;41.96;96685.78;4931775;28;20740;-77
2022/09/11 09:17:44;;;;;;;7.00;4.53;;;;;;;26.92;40.17;96677.75;4948247;29;20201;-76
2022/09/11 09:21:23;;;;;;;4.50;3.63;;;;;;;26.67;40.49;96655.00;4932617;28;20268;-77
2022/09/11 09:24:45;;;;;;;4.03;3.47;;;;;;;26.85;40.41;96679.50;4931510;28;20240;-79
2022/09/11 09:27:59;;;;;;;4.13;3.43;;;;;;;26.70;40.84;96673.28;4934433;29;20648;-79
2022/09/11 09:30:51;;;;;;;3.97;3.57;;;;;;;26.76;40.86;96672.59;4928770;29;20201;-77
2022/09/11 09:33:23;;;;;;;5.17;3.70;;;;;;;26.72;41.05;96673.94;4931634;29;20288;-80
2022/09/11 09:35:56;;;;;;;4.80;3.50;;;;;;;26.74;41.10;96674.59;4898437;29;20619;-76
2022/09/11 09:38:30;;;;;;;4.10;3.70;;;;;;;27.07;41.33;96648.53;4897574;29;20292;-78
2022/09/11 09:41:23;;;;;;;5.20;4.70;;;;;;;26.97;40.89;96670.06;4898079;29;20209;-76
2022/09/11 09:44:18;;;;;;;7.27;5.17;;;;;;;27.00;40.49;96659.06;4912935;29;20202;-77
2022/09/11 09:46:49;;;;;;;11.23;10.23;;;;;;;27.04;40.51;96654.19;4913429;29;20194;-76
2022/09/11 09:49:31;;;;;;;4.97;4.07;;;;;;;27.03;40.62;96647.25;4958269;28;20664;-78
2022/09/11 09:52:03;;;;;;;5.27;4.50;;;;;;;27.33;39.62;96643.59;4951641;28;20208;-77
2022/09/11 09:54:33;;;;;;;4.87;3.80;;;;;;;26.77;40.84;96644.19;4968373;28;20211;-75
2022/09/11 09:57:06;;;;;;;7.57;5.27;;;;;;;27.11;41.01;96642.69;4967222;28;20216;-78
2022/09/11 09:59:44;;;;;;;4.80;4.17;;;;;;;27.02;40.24;96634.94;4950973;28;20203;-76
2022/09/11 10:02:41;;;;;;;53.83;48.33;;;;;;;26.95;40.35;96628.72;4967715;28;20621;-80
2022/09/11 10:05:39;;;;;;;5.20;3.80;;;;;;;27.25;40.34;96639.19;4968581;28;20314;-79
2022/09/11 10:08:33;;;;;;;5.40;4.50;;;;;;;27.31;39.68;96640.28;4967723;28;20633;-79
2022/09/11 10:11:06;;;;;;;5.10;4.37;;;;;;;27.39;39.38;96622.44;4970596;28;20687;-80
2022/09/11 10:13:56;;;;;;;8.40;7.67;;;;;;;27.74;39.54;96628.03;4969917;28;20188;-78
2022/09/11 10:16:25;;;;;;;4.60;3.80;;;;;;;28.11;38.29;96631.34;4950731;28;20215;-76
2022/09/11 10:18:54;;;;;;;4.80;3.83;;;;;;;28.11;37.87;96630.50;4968124;28;20731;-80
2022/09/11 10:21:32;;;;;;;13.53;10.70;;;;;;;28.07;38.14;96635.38;4968529;28;20192;-82
2022/09/11 10:24:01;;;;;;;10.00;8.83;;;;;;;28.01;38.30;96638.81;4941139;28;20259;-79
2022/09/11 10:26:37;;;;;;;4.27;3.87;;;;;;;27.93;38.48;96630.91;4930450;29;20678;-80
2022/09/11 10:29:09;;;;;;;9.70;8.70;;;;;;;27.62;38.74;96648.94;4919779;29;20193;-80
2022/09/11 10:31:39;;;;;;;14.23;12.70;;;;;;;27.65;39.05;96639.78;4912633;29;20277;-81
2022/09/11 10:34:15;;;;;;;5.33;3.67;;;;;;;27.98;38.56;96628.53;4914272;29;20209;-81
2022/09/11 10:36:55;;;;;;;4.30;3.40;;;;;;;27.80;37.33;96641.38;4916823;29;20655;-80
2022/09/11 10:39:24;;;;;;;4.07;3.07;;;;;;;27.56;38.03;96640.88;4920365;29;20190;-78
2022/09/11 10:41:58;;;;;;;4.30;3.13;;;;;;;27.84;37.95;96631.22;4914321;29;20262;-79
2022/09/11 10:44:27;;;;;;;10.80;6.03;;;;;;;28.00;37.84;96636.34;4911730;29;20312;-79
2022/09/11 10:47:23;;;;;;;3.40;3.10;;;;;;;28.02;37.49;96626.31;4912044;29;20281;-77
2022/09/11 10:50:20;;;;;;;5.80;3.83;;;;;;;28.17;38.48;96627.13;4909634;29;20298;-77
2022/09/11 10:53:19;;;;;;;3.30;3.00;;;;;;;28.00;37.53;96631.84;4909948;29;20274;-80
2022/09/11 10:55:59;;;;;;;5.30;3.50;;;;;;;27.78;38.33;96626.63;4909908;29;20254;-78
2022/09/11 10:58:35;;;;;;;4.83;3.93;;;;;;;27.82;38.76;96623.38;4901627;29;20194;-80
2022/09/11 11:01:03;;;;;;;4.50;3.37;;;;;;;27.73;39.19;96619.19;4928242;29;20254;-83
2022/09/11 11:03:30;;;;;;;5.97;4.13;;;;;;;27.72;38.73;96622.88;4932622;29;20201;-77
2022/09/11 11:06:14;;;;;;;4.20;3.17;;;;;;;27.93;37.99;96617.59;4933802;29;20431;-81
2022/09/11 11:08:59;;;;;;;5.10;4.70;;;;;;;28.08;37.21;96607.75;4932562;29;20209;-75
2022/09/11 11:11:49;;;;;;;6.80;5.00;;;;;;;28.23;38.60;96605.03;4932435;29;20277;-75
2022/09/11 11:14:25;;;;;;;5.47;4.60;;;;;;;27.96;38.37;96611.94;4933177;29;20204;-76
2022/09/11 11:17:18;;;;;;;4.17;3.70;;;;;;;27.53;38.53;96598.69;4932358;29;20226;-78
2022/09/11 11:20:05;;;;;;;13.77;11.27;;;;;;;27.77;38.64;96593.03;4931462;29;20221;-77
2022/09/11 11:22:51;;;;;;;6.23;4.00;;;;;;;28.07;38.92;96600.78;4933425;29;20661;-78
2022/09/11 11:26:00;;;;;;;6.40;4.07;;;;;;;28.31;36.70;96609.41;4932428;29;20316;-78
2022/09/11 11:28:55;;;;;;;12.03;11.03;;;;;;;28.44;37.00;96599.69;4926210;29;20202;-76
2022/09/11 11:31:31;;;;;;;3.83;3.20;;;;;;;28.32;36.36;96603.06;4934275;29;20197;-77
2022/09/11 11:34:15;;;;;;;3.63;3.17;;;;;;;28.42;35.90;96588.41;4933404;29;20288;-75
2022/09/11 11:37:02;;;;;;;16.37;15.30;;;;;;;28.48;35.81;96592.97;4934527;29;20202;-78
2022/09/11 11:39:41;;;;;;;5.03;3.53;;;;;;;28.04;35.54;96573.72;4931383;29;20677;-80
2022/09/11 11:42:54;;;;;;;4.97;3.60;;;;;;;27.97;36.12;96594.94;4933428;29;20189;-76
2022/09/11 11:46:16;;;;;;;3.97;2.90;;;;;;;28.32;35.06;96587.91;4932179;29;20720;-80
2022/09/11 11:49:37;;;;;;;3.43;3.13;;;;;;;28.52;35.45;96578.22;4932686;29;20243;-79
2022/09/11 11:52:23;;;;;;;2.83;2.60;;;;;;;28.11;35.52;96577.25;4915155;29;20666;-80
2022/09/11 11:55:53;;;;;;;20.70;19.03;;;;;;;27.84;37.39;96572.66;4931901;29;20190;-82
2022/09/11 11:59:12;;;;;;;4.00;3.13;;;;;;;27.97;36.51;96567.47;4930114;29;20288;-78
2022/09/11 12:02:08;;;;;;;3.93;3.40;;;;;;;27.90;36.10;96563.91;4932091;29;20197;-78
2022/09/11 12:05:25;;;;;;;4.03;3.53;;;;;;;27.90;36.38;96566.56;4931066;29;20648;-82
2022/09/11 12:08:51;;;;;;;4.73;4.07;;;;;;;27.94;37.14;96558.03;4931434;29;20201;-80
2022/09/11 12:12:13;;;;;;;11.93;10.30;;;;;;;28.27;36.20;96550.38;4932248;29;20277;-78
2022/09/11 12:15:41;;;;;;;5.07;3.70;;;;;;;28.57;35.99;96549.22;4932841;29;20190;-76
2022/09/11 12:19:15;;;;;;;11.07;10.10;;;;;;;28.74;35.17;96550.56;4931829;29;20209;-79
2022/09/11 12:22:53;;;;;;;8.83;7.17;;;;;;;28.68;35.19;96550.53;4905028;29;20210;-77
2022/09/11 12:25:34;;;;;;;4.00;3.00;;;;;;;28.38;35.70;96549.84;4930520;29;20225;-78
2022/09/11 12:29:04;;;;;;;6.33;3.63;;;;;;;28.56;35.79;96555.56;4929862;29;20197;-78
2022/09/11 12:31:48;;;;;;;4.10;2.77;;;;;;;28.30;35.76;96551.81;4931319;29;20190;-79
2022/09/11 12:34:37;;;;;;;6.07;3.60;;;;;;;27.81;36.38;96541.06;4930218;29;20186;-77
2022/09/11 12:37:47;;;;;;;4.03;3.30;;;;;;;27.92;36.07;96538.75;4929820;29;20191;-78
2022/09/11 12:41:16;;;;;;;5.73;5.23;;;;;;;27.97;36.23;96535.53;4931488;29;20269;-76
2022/09/11 12:44:48;;;;;;;3.47;3.17;;;;;;;27.85;36.49;96543.16;4930648;29;20289;-79
2022/09/11 12:47:37;;;;;;;4.90;4.27;;;;;;;28.16;35.92;96532.22;4915199;29;20281;-77
2022/09/11 12:50:05;;;;;;;3.60;3.27;;;;;;;28.33;36.69;96533.63;4931830;29;20209;-75
2022/09/11 12:52:50;;;;;;;3.60;3.30;;;;;;;28.22;36.35;96515.47;4930726;29;20269;-78